Time;durP1;ratioP1;P1;durP2;ratioP2;P2;SDS_P1;SDS_P2;PMS_P1;PMS_P2;Temp;Humidity;BMP_temperature;BMP_pressure;BME280_temperature;BME280_humidity;BME280_pressure;Samples;Min_cycle;Max_cycle;Signal;HPM_P1;HPM_P2
2022/09/09 00:02:21;;;;;;;;;;;20.80;60.40;;;;;;5049882;28;19920;-82
2022/09/09 00:05:01;;;;;;;;;;;20.80;60.40;;;;;;5032347;28;19913;-83
2022/09/09 00:07:42;;;;;;;;;;;20.70;60.40;;;;;;5033084;28;19924;-84
2022/09/09 00:10:26;;;;;;;;;;;20.80;60.50;;;;;;5009219;28;19981;-83
2022/09/09 00:12:52;;;;;;;;;;;20.70;60.50;;;;;;5036451;28;19912;-83
2022/09/09 00:15:23;;;;;;;;;;;20.70;60.50;;;;;;5015371;28;19967;-82
2022/09/09 00:17:49;;;;;;;;;;;20.60;60.50;;;;;;5017426;28;19908;-83
2022/09/09 00:20:19;;;;;;;;;;;20.70;60.60;;;;;;5032612;28;19909;-83
2022/09/09 00:22:49;;;;;;;;;;;20.70;60.60;;;;;;5006949;28;19913;-83
2022/09/09 00:25:36;;;;;;;;;;;20.60;60.60;;;;;;5034899;28;19917;-83
2022/09/09 00:28:02;;;;;;;;;;;20.60;60.60;;;;;;5015088;28;19909;-82
2022/09/09 00:30:33;;;;;;;;;;;20.60;60.60;;;;;;5035417;28;19920;-82
2022/09/09 00:33:11;;;;;;;;;;;20.60;60.70;;;;;;5015502;28;20127;-83
2022/09/09 00:35:42;;;;;;;;;;;20.60;60.70;;;;;;5014694;28;19913;-84
2022/09/09 00:38:26;;;;;;;;;;;20.50;60.70;;;;;;5023579;28;19998;-83
2022/09/09 00:41:11;;;;;;;;;;;20.50;60.70;;;;;;4995088;28;20357;-83
2022/09/09 00:43:38;;;;;;;;;;;20.50;60.70;;;;;;5003493;28;19913;-83
2022/09/09 00:46:07;;;;;;;;;;;20.50;60.80;;;;;;5013774;28;19909;-83
2022/09/09 00:48:38;;;;;;;;;;;20.50;60.80;;;;;;5041141;28;19908;-83
2022/09/09 00:51:27;;;;;;;;;;;20.50;60.80;;;;;;5003904;28;19945;-83
2022/09/09 00:54:03;;;;;;;;;;;20.40;60.80;;;;;;5044305;28;19917;-83
2022/09/09 00:56:43;;;;;;;;;;;20.40;61.50;;;;;;5030790;28;19909;-84
2022/09/09 00:59:22;;;;;;;;;;;20.40;60.80;;;;;;5015512;28;19909;-83
2022/09/09 01:01:48;;;;;;;;;;;20.40;60.90;;;;;;5002501;28;19909;-83
2022/09/09 01:04:20;;;;;;;;;;;20.40;60.90;;;;;;5001417;28;19936;-83
2022/09/09 01:06:51;;;;;;;;;;;20.40;60.90;;;;;;5022080;28;19967;-83
2022/09/09 01:09:33;;;;;;;;;;;20.40;60.90;;;;;;5003181;28;19921;-84
2022/09/09 01:12:38;;;;;;;;;;;20.40;60.90;;;;;;5030820;28;19917;-83
2022/09/09 01:15:03;;;;;;;;;;;20.30;60.90;;;;;;4972981;28;19910;-83
2022/09/09 01:17:29;;;;;;;;;;;20.30;60.90;;;;;;4955543;28;19918;-82
2022/09/09 01:20:25;;;;;;;;;;;20.30;61.00;;;;;;4999436;28;20439;-82
2022/09/09 01:23:04;;;;;;;;;;;20.30;61.00;;;;;;5040578;28;20031;-83
2022/09/09 01:25:51;;;;;;;;;;;20.30;61.00;;;;;;5016845;28;19909;-82
2022/09/09 01:28:26;;;;;;;;;;;20.20;61.00;;;;;;5019240;28;19916;-83
2022/09/09 01:30:54;;;;;;;;;;;20.20;61.00;;;;;;5017675;28;20404;-82
2022/09/09 01:33:24;;;;;;;;;;;20.20;61.00;;;;;;5016828;28;19940;-83
2022/09/09 01:35:55;;;;;;;;;;;20.20;61.10;;;;;;5024353;28;19957;-83
2022/09/09 01:38:25;;;;;;;;;;;20.20;61.10;;;;;;5018550;28;20000;-84
2022/09/09 01:40:52;;;;;;;;;;;20.20;61.20;;;;;;5002717;28;19913;-84
2022/09/09 01:43:23;;;;;;;;;;;20.20;61.10;;;;;;4987855;28;20384;-84
2022/09/09 01:45:50;;;;;;;;;;;20.10;61.10;;;;;;5018550;28;19980;-84
2022/09/09 01:48:17;;;;;;;;;;;20.10;61.10;;;;;;5002315;28;19916;-84
2022/09/09 01:50:49;;;;;;;;;;;20.10;61.10;;;;;;5019405;28;19913;-85
2022/09/09 01:53:16;;;;;;;;;;;20.10;61.20;;;;;;5002129;28;20380;-84
2022/09/09 01:55:47;;;;;;;;;;;20.10;61.20;;;;;;5035493;28;19909;-84
2022/09/09 01:58:16;;;;;;;;;;;20.10;61.20;;;;;;5002814;28;19915;-84
2022/09/09 02:00:54;;;;;;;;;;;20.00;61.20;;;;;;5019055;28;19909;-84
2022/09/09 02:03:40;;;;;;;;;;;20.00;61.20;;;;;;5001940;28;19913;-84
2022/09/09 02:06:34;;;;;;;;;;;20.00;61.20;;;;;;5036518;28;19978;-84
2022/09/09 02:09:11;;;;;;;;;;;20.00;61.20;;;;;;5018444;28;19920;-85
2022/09/09 02:11:38;;;;;;;;;;;19.90;61.20;;;;;;5018388;28;20269;-85
2022/09/09 02:14:37;;;;;;;;;;;19.90;61.20;;;;;;5018344;28;19905;-84
2022/09/09 02:17:07;;;;;;;;;;;19.90;61.20;;;;;;5017752;28;19909;-81
2022/09/09 02:19:54;;;;;;;;;;;19.90;61.30;;;;;;5018270;28;19909;-82
2022/09/09 02:22:29;;;;;;;;;;;19.80;61.20;;;;;;5018227;28;19916;-84
2022/09/09 02:24:58;;;;;;;;;;;19.80;61.20;;;;;;5018168;28;19920;-87
2022/09/09 02:27:25;;;;;;;;;;;19.80;61.30;;;;;;5017783;28;19909;-85
2022/09/09 02:29:52;;;;;;;;;;;19.80;61.20;;;;;;5017782;28;19919;-84
2022/09/09 02:32:30;;;;;;;;;;;19.80;61.30;;;;;;5010506;28;19909;-84
2022/09/09 02:34:59;;;;;;;;;;;19.80;61.30;;;;;;5017858;28;20003;-85
2022/09/09 02:37:30;;;;;;;;;;;19.80;61.30;;;;;;5017595;28;19905;-85
2022/09/09 02:39:56;;;;;;;;;;;19.70;61.30;;;;;;5017872;28;19928;-84
2022/09/09 02:42:23;;;;;;;;;;;19.70;61.30;;;;;;5035266;28;19909;-86
2022/09/09 02:44:50;;;;;;;;;;;19.70;61.30;;;;;;5017745;28;19909;-84
2022/09/09 02:47:28;;;;;;;;;;;19.70;61.40;;;;;;5017744;28;20296;-84
2022/09/09 02:50:02;;;;;;;;;;;19.70;61.30;;;;;;5051369;28;20274;-84
2022/09/09 02:52:29;;;;;;;;;;;19.60;61.30;;;;;;5034455;28;19919;-85
2022/09/09 02:55:01;;;;;;;;;;;19.60;61.30;;;;;;5050253;28;19905;-84
2022/09/09 02:57:29;;;;;;;;;;;19.60;61.40;;;;;;5017328;28;19931;-85
2022/09/09 02:59:57;;;;;;;;;;;19.50;61.30;;;;;;5017321;28;19912;-84
2022/09/09 03:02:24;;;;;;;;;;;19.50;61.30;;;;;;5016806;28;19916;-82
2022/09/09 03:04:54;;;;;;;;;;;19.50;61.40;;;;;;5050201;28;20306;-85
2022/09/09 03:07:20;;;;;;;;;;;19.50;61.40;;;;;;5034578;28;20000;-85
2022/09/09 03:09:46;;;;;;;;;;;19.50;61.40;;;;;;5033270;28;19917;-85
2022/09/09 03:12:12;;;;;;;;;;;19.50;61.40;;;;;;5050582;28;19967;-85
2022/09/09 03:14:39;;;;;;;;;;;19.50;61.40;;;;;;5033284;28;20330;-87
2022/09/09 03:17:05;;;;;;;;;;;19.50;61.40;;;;;;5016901;28;19971;-84
2022/09/09 03:19:37;;;;;;;;;;;19.40;61.40;;;;;;5016296;28;19908;-85
2022/09/09 03:22:04;;;;;;;;;;;19.40;61.40;;;;;;5016834;28;19909;-83
2022/09/09 03:24:31;;;;;;;;;;;19.40;61.50;;;;;;5050182;28;19909;-84
2022/09/09 03:26:57;;;;;;;;;;;19.30;61.40;;;;;;5033195;28;19913;-85
2022/09/09 03:29:23;;;;;;;;;;;19.40;61.50;;;;;;5033937;28;19913;-84
2022/09/09 03:31:51;;;;;;;;;;;19.30;61.50;;;;;;5017038;28;19913;-85
2022/09/09 03:34:17;;;;;;;;;;;19.30;61.50;;;;;;5016869;28;19971;-85
2022/09/09 03:36:43;;;;;;;;;;;19.30;62.20;;;;;;5033141;28;20350;-85
2022/09/09 03:39:09;;;;;;;;;;;19.30;61.50;;;;;;5016358;28;19909;-86
2022/09/09 03:41:37;;;;;;;;;;;19.30;61.50;;;;;;5033049;28;19909;-85
2022/09/09 03:44:03;;;;;;;;;;;19.20;61.50;;;;;;5049660;28;19909;-85
2022/09/09 03:46:34;;;;;;;;;;;19.30;61.60;;;;;;5034132;28;19917;-85
2022/09/09 03:49:01;;;;;;;;;;;19.20;61.60;;;;;;5017013;28;20421;-84
2022/09/09 03:51:26;;;;;;;;;;;19.20;61.60;;;;;;5049834;28;19917;-82
2022/09/09 03:53:55;;;;;;;;;;;19.20;61.70;;;;;;5033436;28;20428;-84
2022/09/09 03:56:21;;;;;;;;;;;19.20;61.70;;;;;;5032895;28;20273;-83
2022/09/09 03:58:47;;;;;;;;;;;19.20;61.70;;;;;;5016777;28;19917;-86
2022/09/09 04:01:14;;;;;;;;;;;19.10;61.60;;;;;;5016528;28;20375;-83
2022/09/09 04:03:41;;;;;;;;;;;19.10;61.70;;;;;;5032892;28;19909;-83
2022/09/09 04:06:13;;;;;;;;;;;19.10;61.70;;;;;;5016957;28;19910;-83
2022/09/09 04:08:41;;;;;;;;;;;19.10;61.70;;;;;;5016375;28;19951;-82
2022/09/09 04:11:07;;;;;;;;;;;19.10;61.70;;;;;;5049441;28;19925;-84
2022/09/09 04:13:34;;;;;;;;;;;19.10;61.80;;;;;;5049618;28;20377;-83
2022/09/09 04:16:01;;;;;;;;;;;19.10;61.80;;;;;;5032675;28;19912;-84
2022/09/09 04:18:30;;;;;;;;;;;19.10;61.80;;;;;;5016633;28;19905;-82
2022/09/09 04:20:57;;;;;;;;;;;19.10;61.80;;;;;;5016634;28;20023;-83
2022/09/09 04:23:25;;;;;;;;;;;19.00;61.70;;;;;;5016221;28;19955;-83
2022/09/09 04:25:52;;;;;;;;;;;19.00;61.70;;;;;;5015946;28;19921;-84
2022/09/09 04:28:19;;;;;;;;;;;19.00;61.70;;;;;;5032413;28;19905;-83
2022/09/09 04:30:45;;;;;;;;;;;19.00;61.70;;;;;;5017093;28;19913;-83
2022/09/09 04:33:11;;;;;;;;;;;19.00;61.80;;;;;;5019985;28;19909;-84
2022/09/09 04:35:38;;;;;;;;;;;19.00;61.80;;;;;;5019997;28;19909;-83
2022/09/09 04:38:04;;;;;;;;;;;19.00;61.80;;;;;;5019836;28;19912;-83
2022/09/09 04:40:32;;;;;;;;;;;19.00;61.90;;;;;;5036782;28;19932;-84
2022/09/09 04:42:59;;;;;;;;;;;19.00;61.90;;;;;;5020064;28;19905;-83
2022/09/09 04:45:26;;;;;;;;;;;19.00;61.90;;;;;;5019208;28;20315;-83
2022/09/09 04:47:53;;;;;;;;;;;19.00;61.90;;;;;;5036077;28;19916;-84
2022/09/09 04:50:18;;;;;;;;;;;18.90;61.80;;;;;;5052803;28;20015;-82
2022/09/09 04:52:46;;;;;;;;;;;18.90;61.80;;;;;;5037223;28;19923;-84
2022/09/09 04:55:12;;;;;;;;;;;19.00;61.90;;;;;;5037326;28;19913;-84
2022/09/09 04:57:39;;;;;;;;;;;19.00;61.90;;;;;;5019914;28;19955;-84
2022/09/09 05:00:06;;;;;;;;;;;18.90;61.90;;;;;;5019841;28;20350;-84
2022/09/09 05:02:39;;;;;;;;;;;18.90;61.90;;;;;;5019783;28;19910;-84
2022/09/09 05:05:06;;;;;;;;;;;18.90;61.90;;;;;;5020081;28;19909;-84
2022/09/09 05:07:31;;;;;;;;;;;18.90;61.90;;;;;;5019647;28;19924;-84
2022/09/09 05:09:57;;;;;;;;;;;18.90;62.60;;;;;;5019988;28;19913;-84
2022/09/09 05:12:25;;;;;;;;;;;18.90;62.00;;;;;;5036225;28;19920;-85
2022/09/09 05:14:51;;;;;;;;;;;18.90;62.00;;;;;;5019969;28;19999;-84
2022/09/09 05:17:17;;;;;;;;;;;18.90;62.00;;;;;;5019203;28;19909;-82
2022/09/09 05:19:43;;;;;;;;;;;18.90;62.00;;;;;;5019295;28;19916;-83
2022/09/09 05:22:10;;;;;;;;;;;18.90;62.00;;;;;;5052473;28;19909;-83
2022/09/09 05:24:42;;;;;;;;;;;18.90;62.00;;;;;;5034326;28;19967;-84
2022/09/09 05:27:11;;;;;;;;;;;18.90;62.00;;;;;;5035358;28;19919;-84
2022/09/09 05:29:37;;;;;;;;;;;18.90;62.10;;;;;;5018272;28;20353;-81
2022/09/09 05:32:05;;;;;;;;;;;18.90;62.10;;;;;;5036051;28;19917;-85
2022/09/09 05:34:31;;;;;;;;;;;18.90;62.10;;;;;;5035804;28;19909;-86
2022/09/09 05:36:58;;;;;;;;;;;18.80;62.10;;;;;;5035520;28;20345;-86
2022/09/09 05:39:24;;;;;;;;;;;18.80;62.70;;;;;;5035266;28;20004;-85
2022/09/09 05:41:51;;;;;;;;;;;18.90;62.10;;;;;;5018514;28;19937;-85
2022/09/09 05:44:16;;;;;;;;;;;18.90;62.10;;;;;;5019000;28;20419;-83
2022/09/09 05:46:44;;;;;;;;;;;18.80;62.10;;;;;;5019801;28;20318;-85
2022/09/09 05:49:12;;;;;;;;;;;18.90;62.10;;;;;;5052440;28;19935;-84
2022/09/09 05:51:40;;;;;;;;;;;18.80;62.10;;;;;;5035226;28;19947;-86
2022/09/09 05:54:09;;;;;;;;;;;18.90;62.10;;;;;;5051223;28;19949;-85
2022/09/09 05:56:39;;;;;;;;;;;18.80;62.10;;;;;;5035963;28;20372;-83
2022/09/09 05:59:07;;;;;;;;;;;18.90;62.10;;;;;;5034894;28;19920;-85
2022/09/09 06:01:34;;;;;;;;;;;18.90;62.10;;;;;;5018664;28;19901;-84
2022/09/09 06:04:01;;;;;;;;;;;18.90;62.20;;;;;;5018335;28;19991;-84
2022/09/09 06:06:36;;;;;;;;;;;18.90;62.20;;;;;;5018145;28;20439;-84
2022/09/09 06:09:06;;;;;;;;;;;18.90;62.20;;;;;;5051342;28;19979;-83
2022/09/09 06:11:35;;;;;;;;;;;18.80;62.10;;;;;;5018700;28;20387;-86
2022/09/09 06:14:02;;;;;;;;;;;18.80;62.10;;;;;;5018522;28;19901;-85
2022/09/09 06:16:32;;;;;;;;;;;18.90;62.20;;;;;;5035450;28;20330;-84
2022/09/09 06:18:58;;;;;;;;;;;18.90;62.20;;;;;;5018702;28;19909;-85
2022/09/09 06:21:24;;;;;;;;;;;18.90;62.20;;;;;;5018304;28;19951;-84
2022/09/09 06:23:53;;;;;;;;;;;18.90;62.20;;;;;;5034729;28;20345;-85
2022/09/09 06:26:20;;;;;;;;;;;18.90;62.20;;;;;;5018119;28;20315;-84
2022/09/09 06:28:49;;;;;;;;;;;18.90;62.20;;;;;;5017755;28;19909;-84
2022/09/09 06:31:22;;;;;;;;;;;18.90;62.20;;;;;;5034847;28;19917;-84
2022/09/09 06:33:52;;;;;;;;;;;18.90;62.20;;;;;;5034686;28;19932;-85
2022/09/09 06:36:20;;;;;;;;;;;18.90;62.20;;;;;;5018410;28;19960;-85
2022/09/09 06:38:45;;;;;;;;;;;18.90;62.20;;;;;;5001945;28;19912;-87
2022/09/09 06:41:15;;;;;;;;;;;18.90;62.20;;;;;;5034870;28;20265;-84
2022/09/09 06:43:43;;;;;;;;;;;18.90;62.80;;;;;;5018670;28;19960;-85
2022/09/09 06:46:10;;;;;;;;;;;18.90;62.20;;;;;;5018880;28;19905;-86
2022/09/09 06:48:47;;;;;;;;;;;18.90;62.20;;;;;;5051361;28;20369;-84
2022/09/09 06:51:16;;;;;;;;;;;18.90;62.20;;;;;;5018163;28;19917;-85
2022/09/09 06:53:43;;;;;;;;;;;18.90;62.20;;;;;;5034076;28;19912;-85
2022/09/09 06:56:10;;;;;;;;;;;19.00;62.20;;;;;;5017991;28;19909;-85
2022/09/09 06:58:45;;;;;;;;;;;18.90;62.20;;;;;;5034446;28;20413;-88
2022/09/09 07:01:19;;;;;;;;;;;19.00;62.20;;;;;;5018035;28;19912;-84
2022/09/09 07:03:47;;;;;;;;;;;19.00;62.20;;;;;;5017369;28;20354;-84
2022/09/09 07:06:14;;;;;;;;;;;19.00;62.20;;;;;;5017375;28;19908;-84
2022/09/09 07:08:41;;;;;;;;;;;19.00;62.20;;;;;;5017711;28;19909;-86
2022/09/09 07:11:07;;;;;;;;;;;19.00;62.20;;;;;;5018000;28;19921;-85
2022/09/09 07:13:35;;;;;;;;;;;19.00;62.20;;;;;;5017552;28;19913;-86
2022/09/09 07:16:09;;;;;;;;;;;19.00;62.20;;;;;;5017304;28;20411;-87
2022/09/09 07:18:35;;;;;;;;;;;19.00;62.20;;;;;;5017009;28;19915;-85
2022/09/09 07:21:01;;;;;;;;;;;19.00;62.20;;;;;;5017606;28;20367;-84
2022/09/09 07:23:28;;;;;;;;;;;19.00;62.20;;;;;;5033855;28;19916;-86
2022/09/09 07:25:54;;;;;;;;;;;19.10;62.20;;;;;;5016968;28;20348;-84
2022/09/09 07:28:20;;;;;;;;;;;19.10;62.20;;;;;;5033748;28;19964;-86
2022/09/09 07:31:13;;;;;;;;;;;19.10;62.20;;;;;;5017125;28;19978;-86
2022/09/09 07:33:40;;;;;;;;;;;19.10;62.20;;;;;;5000852;28;19952;-85
2022/09/09 07:36:07;;;;;;;;;;;19.10;62.20;;;;;;5017042;28;19919;-86
2022/09/09 07:38:38;;;;;;;;;;;19.10;62.20;;;;;;5000385;28;19943;-86
2022/09/09 07:41:05;;;;;;;;;;;19.10;62.90;;;;;;5017492;28;19908;-85
2022/09/09 07:43:31;;;;;;;;;;;19.10;62.20;;;;;;5017406;28;19999;-87
2022/09/09 07:45:58;;;;;;;;;;;19.10;62.20;;;;;;5017016;28;19936;-85
2022/09/09 07:48:23;;;;;;;;;;;19.10;62.20;;;;;;5017909;28;19909;-85
2022/09/09 07:50:49;;;;;;;;;;;19.20;62.20;;;;;;5017672;28;19966;-85
2022/09/09 07:53:15;;;;;;;;;;;19.20;62.20;;;;;;5016961;28;20327;-86
2022/09/09 07:55:41;;;;;;;;;;;19.20;62.20;;;;;;5033237;28;20269;-87
2022/09/09 07:58:06;;;;;;;;;;;19.20;62.20;;;;;;5017144;28;19909;-86
2022/09/09 08:00:33;;;;;;;;;;;19.20;62.20;;;;;;5033218;28;19945;-87
2022/09/09 08:03:00;;;;;;;;;;;19.30;62.30;;;;;;5016957;28;19909;-84
2022/09/09 08:05:26;;;;;;;;;;;19.30;62.20;;;;;;5016323;28;19913;-86
2022/09/09 08:07:52;;;;;;;;;;;19.30;62.20;;;;;;5016420;28;19928;-86
2022/09/09 08:10:18;;;;;;;;;;;19.30;62.20;;;;;;5033377;28;19917;-86
2022/09/09 08:12:46;;;;;;;;;;;19.30;62.20;;;;;;5017121;28;19986;-85
2022/09/09 08:15:12;;;;;;;;;;;19.30;62.10;;;;;;5016938;28;20378;-86
2022/09/09 08:17:38;;;;;;;;;;;19.40;62.20;;;;;;5033217;28;19909;-87
2022/09/09 08:20:06;;;;;;;;;;;19.40;62.20;;;;;;5017132;28;19909;-88
2022/09/09 08:22:34;;;;;;;;;;;19.40;62.20;;;;;;5033724;28;19913;-85
2022/09/09 08:25:00;;;;;;;;;;;19.40;62.10;;;;;;5016887;28;19909;-86
2022/09/09 08:27:25;;;;;;;;;;;19.50;62.20;;;;;;5016730;28;19913;-85
2022/09/09 08:29:53;;;;;;;;;;;19.50;62.20;;;;;;5016880;28;19913;-86
2022/09/09 08:32:19;;;;;;;;;;;19.50;62.20;;;;;;5017000;28;19921;-87
2022/09/09 08:34:45;;;;;;;;;;;19.50;62.20;;;;;;5016410;28;20380;-85
2022/09/09 08:37:15;;;;;;;;;;;19.50;62.10;;;;;;5017583;28;20457;-87
2022/09/09 08:39:41;;;;;;;;;;;19.50;62.10;;;;;;5034124;28;19913;-86
2022/09/09 08:42:29;;;;;;;;;;;19.60;62.90;;;;;;5034582;28;20244;-87
2022/09/09 08:45:02;;;;;;;;;;;19.60;62.10;;;;;;5034234;28;19909;-88
2022/09/09 08:47:29;;;;;;;;;;;19.60;62.10;;;;;;5017094;28;20309;-85
2022/09/09 08:50:02;;;;;;;;;;;19.60;62.10;;;;;;5033180;28;19913;-85
2022/09/09 08:52:32;;;;;;;;;;;19.60;62.10;;;;;;5016628;28;19912;-85
2022/09/09 08:55:02;;;;;;;;;;;19.70;62.20;;;;;;5016737;28;20361;-86
2022/09/09 08:57:28;;;;;;;;;;;19.70;62.10;;;;;;5016720;28;19970;-86
2022/09/09 08:59:56;;;;;;;;;;;19.70;62.10;;;;;;5016375;28;19909;-85
2022/09/09 09:02:36;;;;;;;;;;;19.70;62.10;;;;;;5016392;28;19959;-86
2022/09/09 09:05:12;;;;;;;;;;;19.70;62.10;;;;;;5016393;28;20387;-87
2022/09/09 09:07:58;;;;;;;;;;;19.80;62.20;;;;;;5032090;28;19971;-87
2022/09/09 09:10:28;;;;;;;;;;;19.70;62.10;;;;;;5016410;28;19924;-86
2022/09/09 09:12:54;;;;;;;;;;;19.70;62.10;;;;;;5033781;28;19916;-85
2022/09/09 09:15:27;;;;;;;;;;;19.80;62.20;;;;;;5000227;28;20371;-88
2022/09/09 09:17:54;;;;;;;;;;;19.80;62.20;;;;;;5018626;28;19916;-84
2022/09/09 09:20:22;;;;;;;;;;;19.80;62.20;;;;;;5036572;28;20063;-87
2022/09/09 09:22:50;;;;;;;;;;;19.90;62.20;;;;;;5020332;28;19909;-87
2022/09/09 09:25:28;;;;;;;;;;;19.90;62.20;;;;;;5019709;28;19909;-90
2022/09/09 09:28:05;;;;;;;;;;;19.90;62.20;;;;;;5020080;28;19909;-87
2022/09/09 09:30:41;;;;;;;;;;;19.90;62.10;;;;;;5019793;28;19924;-87
2022/09/09 09:33:12;;;;;;;;;;;20.00;62.20;;;;;;5020108;28;19924;-87
2022/09/09 09:35:38;;;;;;;;;;;20.00;62.80;;;;;;5020011;28;19959;-90
2022/09/09 09:38:17;;;;;;;;;;;20.00;62.10;;;;;;5052911;28;19909;-88
2022/09/09 09:40:57;;;;;;;;;;;20.00;62.10;;;;;;5020256;28;20000;-89
2022/09/09 09:43:37;;;;;;;;;;;20.00;62.10;;;;;;5016916;28;19909;-89
2022/09/09 09:46:18;;;;;;;;;;;20.10;62.10;;;;;;5017777;28;19920;-88
2022/09/09 09:48:55;;;;;;;;;;;20.10;62.70;;;;;;5036118;28;20000;-89
2022/09/09 09:51:25;;;;;;;;;;;20.10;62.70;;;;;;5020125;28;19925;-88
2022/09/09 09:53:53;;;;;;;;;;;20.20;62.10;;;;;;5019214;28;19911;-92
2022/09/09 09:56:27;;;;;;;;;;;20.10;62.00;;;;;;5035666;28;20341;-84
2022/09/09 09:58:54;;;;;;;;;;;20.20;62.10;;;;;;5052807;28;20413;-86
2022/09/09 10:01:29;;;;;;;;;;;20.20;62.00;;;;;;5019279;28;20415;-88
2022/09/09 10:04:01;;;;;;;;;;;20.20;62.00;;;;;;5019528;28;19913;-89
2022/09/09 10:06:34;;;;;;;;;;;20.30;62.10;;;;;;5019436;28;19975;-87
2022/09/09 10:09:01;;;;;;;;;;;20.30;62.00;;;;;;5019388;28;19916;-88
2022/09/09 10:11:37;;;;;;;;;;;20.30;62.00;;;;;;5018774;28;19967;-86
2022/09/09 10:14:03;;;;;;;;;;;20.30;62.00;;;;;;5019023;28;20394;-87
2022/09/09 10:16:28;;;;;;;;;;;20.40;62.00;;;;;;5052503;28;19996;-86
2022/09/09 10:18:54;;;;;;;;;;;20.40;62.00;;;;;;5036068;28;19916;-86
2022/09/09 10:21:23;;;;;;;;;;;20.40;61.90;;;;;;5051092;28;19955;-86
2022/09/09 10:24:13;;;;;;;;;;;20.40;61.90;;;;;;5035750;28;20357;-84
2022/09/09 10:26:50;;;;;;;;;;;20.50;62.00;;;;;;5035549;28;20015;-86
2022/09/09 10:29:34;;;;;;;;;;;20.50;61.90;;;;;;5017999;28;19905;-84
2022/09/09 10:32:07;;;;;;;;;;;20.50;61.90;;;;;;5018102;28;19959;-86
2022/09/09 10:34:52;;;;;;;;;;;20.50;61.90;;;;;;5019385;28;19916;-87
2022/09/09 10:37:37;;;;;;;;;;;20.60;62.00;;;;;;5018415;28;19920;-85
2022/09/09 10:40:39;;;;;;;;;;;20.50;61.80;;;;;;5025251;28;20010;-86
2022/09/09 10:43:06;;;;;;;;;;;20.60;61.90;;;;;;4994622;28;19910;-87
2022/09/09 10:45:48;;;;;;;;;;;20.60;61.90;;;;;;5010238;28;19905;-87
2022/09/09 10:48:22;;;;;;;;;;;20.60;61.80;;;;;;5018422;28;19909;-87
2022/09/09 10:50:48;;;;;;;;;;;20.60;61.80;;;;;;5035287;28;20004;-86
2022/09/09 10:53:20;;;;;;;;;;;20.60;61.80;;;;;;5034958;28;19959;-86
2022/09/09 10:55:51;;;;;;;;;;;20.70;61.80;;;;;;5018361;28;19920;-86
2022/09/09 10:58:23;;;;;;;;;;;20.70;61.80;;;;;;5001539;28;19936;-86
2022/09/09 11:00:54;;;;;;;;;;;20.70;61.80;;;;;;5018088;28;19971;-86
2022/09/09 11:03:23;;;;;;;;;;;20.70;61.80;;;;;;5036069;28;19917;-86
2022/09/09 11:05:53;;;;;;;;;;;20.70;61.80;;;;;;5039466;28;19924;-88
2022/09/09 11:08:26;;;;;;;;;;;20.80;61.80;;;;;;5045095;28;19917;-86
2022/09/09 11:10:56;;;;;;;;;;;20.80;61.80;;;;;;5057274;28;19964;-86
2022/09/09 11:13:43;;;;;;;;;;;20.80;61.80;;;;;;5053153;28;19905;-86
2022/09/09 11:16:27;;;;;;;;;;;20.80;61.70;;;;;;5002196;28;20262;-87
2022/09/09 11:18:57;;;;;;;;;;;20.80;61.70;;;;;;5018370;28;19909;-87
2022/09/09 11:21:27;;;;;;;;;;;20.90;61.80;;;;;;5015037;28;20400;-87
2022/09/09 11:23:56;;;;;;;;;;;20.90;62.40;;;;;;5014236;28;19924;-87
2022/09/09 11:26:28;;;;;;;;;;;20.80;61.70;;;;;;5035057;28;19905;-87
2022/09/09 11:29:11;;;;;;;;;;;20.90;61.70;;;;;;5018015;28;20007;-87
2022/09/09 11:31:44;;;;;;;;;;;20.90;61.70;;;;;;5017122;28;19970;-87
2022/09/09 11:34:09;;;;;;;;;;;20.90;62.30;;;;;;5035671;28;19909;-87
2022/09/09 11:36:35;;;;;;;;;;;21.00;61.70;;;;;;5035117;28;20245;-87
2022/09/09 11:39:04;;;;;;;;;;;21.00;61.70;;;;;;5035264;28;19998;-87
2022/09/09 11:41:34;;;;;;;;;;;21.00;61.70;;;;;;5049871;28;20399;-87
2022/09/09 11:44:10;;;;;;;;;;;21.00;61.70;;;;;;5018170;28;19963;-87
2022/09/09 11:46:37;;;;;;;;;;;21.00;61.70;;;;;;5017513;28;19905;-85
2022/09/09 11:49:05;;;;;;;;;;;21.10;61.70;;;;;;5017464;28;19954;-87
2022/09/09 11:51:32;;;;;;;;;;;21.10;61.70;;;;;;5034574;28;19913;-87
2022/09/09 11:53:58;;;;;;;;;;;21.10;61.70;;;;;;5033690;28;19909;-88
2022/09/09 11:56:26;;;;;;;;;;;21.10;61.60;;;;;;5049921;28;19944;-86
2022/09/09 11:59:20;;;;;;;;;;;21.20;61.60;;;;;;5017778;28;19905;-87
2022/09/09 12:01:49;;;;;;;;;;;21.20;61.60;;;;;;5034113;28;19909;-85
2022/09/09 12:04:28;;;;;;;;;;;21.20;61.60;;;;;;5016884;28;19912;-87
2022/09/09 12:06:59;;;;;;;;;;;21.30;61.60;;;;;;5017230;28;19917;-86
2022/09/09 12:09:31;;;;;;;;;;;21.30;61.60;;;;;;5034722;28;19916;-86
2022/09/09 12:12:07;;;;;;;;;;;21.30;61.50;;;;;;5033444;28;19913;-85
2022/09/09 12:14:43;;;;;;;;;;;21.30;61.50;;;;;;5035103;28;19909;-85
2022/09/09 12:17:14;;;;;;;;;;;21.40;61.60;;;;;;5034426;28;19909;-87
2022/09/09 12:19:40;;;;;;;;;;;21.40;61.60;;;;;;5050164;28;19909;-87
2022/09/09 12:22:28;;;;;;;;;;;21.40;61.50;;;;;;5017236;28;19924;-87
2022/09/09 12:25:13;;;;;;;;;;;21.40;61.50;;;;;;5017076;28;19935;-87
2022/09/09 12:28:01;;;;;;;;;;;21.50;61.60;;;;;;5034190;28;20395;-86
2022/09/09 12:30:50;;;;;;;;;;;21.50;61.60;;;;;;5034106;28;19924;-87
2022/09/09 12:33:19;;;;;;;;;;;21.50;61.50;;;;;;5017441;28;19915;-86
2022/09/09 12:35:48;;;;;;;;;;;21.50;61.50;;;;;;5034313;28;19959;-87
2022/09/09 12:38:19;;;;;;;;;;;21.60;61.50;;;;;;5016886;28;19962;-86
2022/09/09 12:40:53;;;;;;;;;;;21.60;61.50;;;;;;5017038;28;19917;-87
2022/09/09 12:43:21;;;;;;;;;;;21.60;61.50;;;;;;5016930;28;19916;-86
2022/09/09 12:45:49;;;;;;;;;;;21.60;61.50;;;;;;5016744;28;19916;-87
2022/09/09 12:48:17;;;;;;;;;;;21.60;61.40;;;;;;5016459;28;19912;-87
2022/09/09 12:50:45;;;;;;;;;;;21.60;61.50;;;;;;5016612;28;19979;-87
2022/09/09 12:53:15;;;;;;;;;;;21.70;61.50;;;;;;5053182;28;19909;-87
2022/09/09 12:55:55;;;;;;;;;;;21.70;61.50;;;;;;5020125;28;19909;-86
2022/09/09 12:58:21;;;;;;;;;;;21.70;61.40;;;;;;5038100;28;19913;-86
2022/09/09 13:00:57;;;;;;;;;;;21.70;61.40;;;;;;5020332;28;19916;-87
2022/09/09 13:03:23;;;;;;;;;;;21.80;61.40;;;;;;5037490;28;19909;-86
2022/09/09 13:05:49;;;;;;;;;;;21.80;61.40;;;;;;5020712;28;19905;-87
2022/09/09 13:08:18;;;;;;;;;;;21.80;61.30;;;;;;5020165;28;19924;-86
2022/09/09 13:10:54;;;;;;;;;;;21.80;61.30;;;;;;5019972;28;19966;-86
2022/09/09 13:13:22;;;;;;;;;;;21.80;61.30;;;;;;5019790;28;19916;-87
2022/09/09 13:15:57;;;;;;;;;;;21.90;61.30;;;;;;5020176;28;19905;-87
2022/09/09 13:18:24;;;;;;;;;;;21.90;61.30;;;;;;5036777;28;19909;-87
2022/09/09 13:20:51;;;;;;;;;;;21.90;61.30;;;;;;5019998;28;19912;-86
2022/09/09 13:23:18;;;;;;;;;;;21.90;61.20;;;;;;5053184;28;19923;-86
2022/09/09 13:25:53;;;;;;;;;;;21.90;61.20;;;;;;5020068;28;19905;-87
2022/09/09 13:28:21;;;;;;;;;;;21.90;61.20;;;;;;5040972;28;19915;-87
2022/09/09 13:30:56;;;;;;;;;;;22.00;61.20;;;;;;5025430;28;19917;-87
2022/09/09 13:33:22;;;;;;;;;;;22.00;61.20;;;;;;5042151;28;19909;-86
2022/09/09 13:35:54;;;;;;;;;;;22.00;61.20;;;;;;5023742;28;19916;-86
2022/09/09 13:38:21;;;;;;;;;;;22.00;61.20;;;;;;5037656;28;19909;-86
2022/09/09 13:41:04;;;;;;;;;;;22.00;61.20;;;;;;5019912;28;19963;-86
2022/09/09 13:43:43;;;;;;;;;;;22.00;61.10;;;;;;5019726;28;19992;-86
2022/09/09 13:46:27;;;;;;;;;;;22.00;61.10;;;;;;5019770;28;19909;-87
2022/09/09 13:48:54;;;;;;;;;;;22.10;61.20;;;;;;5052767;28;19909;-85
2022/09/09 13:51:33;;;;;;;;;;;22.10;61.20;;;;;;5019386;28;19961;-86
2022/09/09 13:54:00;;;;;;;;;;;22.10;61.10;;;;;;5037053;28;19916;-86
2022/09/09 13:56:26;;;;;;;;;;;22.10;61.10;;;;;;5019162;28;20000;-86
2022/09/09 13:58:51;;;;;;;;;;;22.20;61.20;;;;;;5037423;28;19955;-87
2022/09/09 14:01:17;;;;;;;;;;;22.10;61.10;;;;;;5035900;28;19913;-87
2022/09/09 14:03:43;;;;;;;;;;;22.10;61.00;;;;;;5018340;28;19913;-87
2022/09/09 14:06:09;;;;;;;;;;;22.10;61.00;;;;;;5035718;28;19909;-86
2022/09/09 14:08:36;;;;;;;;;;;22.20;61.10;;;;;;5019256;28;19983;-87
2022/09/09 14:11:03;;;;;;;;;;;22.20;61.10;;;;;;5018978;28;20006;-86
2022/09/09 14:13:28;;;;;;;;;;;22.20;61.00;;;;;;5036559;28;20047;-86
2022/09/09 14:15:54;;;;;;;;;;;22.20;61.00;;;;;;5035419;28;19952;-86
2022/09/09 14:18:22;;;;;;;;;;;22.20;61.00;;;;;;5018675;28;19905;-87
2022/09/09 14:20:47;;;;;;;;;;;22.20;61.00;;;;;;5018517;28;19912;-86
2022/09/09 14:23:14;;;;;;;;;;;22.20;61.00;;;;;;5018453;28;19951;-88
2022/09/09 14:25:41;;;;;;;;;;;22.20;61.00;;;;;;5018949;28;19995;-87
2022/09/09 14:28:08;;;;;;;;;;;22.20;61.00;;;;;;5018943;28;19908;-87
2022/09/09 14:30:34;;;;;;;;;;;22.30;61.10;;;;;;5035154;28;20354;-86
2022/09/09 14:32:59;;;;;;;;;;;22.30;61.00;;;;;;5035901;28;19964;-86
2022/09/09 14:35:25;;;;;;;;;;;22.30;61.00;;;;;;5035310;28;19917;-87
2022/09/09 14:37:51;;;;;;;;;;;22.30;61.00;;;;;;5035845;28;19913;-87